Flight Track Log - Related Links

Times and Time Zones

All times are in EDT time to prevent confusion due to time zone crossing. See the SWA1521 flight status page for this flight to view local times or setup timezone preferences in your user account.

Time Position Orientation Groundspeed Altitude Reporting Facility
EDT Latitude Longitude Course Direction KTS MPH feet Rate Location/Type
Sun 04:30:09 PM 38.1000 -85.7333 264° West 197 227 2,800  Level Louisville TRACON
Sun 04:31:10 PM 38.0769 -85.7944 244° Southwest 251 289 4,500 2,195 Climbing Indianapolis Center
Sun 04:32:12 PM 38.0753 -85.8906 269° West 266 306 7,300 2,903 Climbing Indianapolis Center
Sun 04:33:14 PM 38.0697 -85.9889 266° West 276 318 10,500 3,145 Climbing Indianapolis Center
Sun 04:34:16 PM 38.0633 -86.0947 266° West 296 341 13,800 2,806 Climbing Indianapolis Center
Sun 04:35:00 PM 38.0305 -86.4959 264° West  Level FlightAware Approximate
Sun 04:35:18 PM 38.0553 -86.2269 266° West 310 357 16,300  Level Indianapolis Center
Sun 04:36:20 PM 38.0456 -86.3597 265° West 370 426 17,900 1,839 Climbing Indianapolis Center
Sun 04:37:22 PM 38.0347 -86.4986 264° West 390 449 20,100 1,887 Climbing Indianapolis Center
Sun 04:38:24 PM 38.0228 -86.6475 264° West 415 478 21,800 2,081 Climbing Indianapolis Center
Sun 04:39:26 PM 38.0103 -86.7994 264° West 426 490 24,400 2,129 Climbing Indianapolis Center
Sun 04:40:28 PM 38.0225 -86.9481 276° West 423 487 26,200 1,452 Climbing Indianapolis Center
Sun 04:41:30 PM 38.0506 -87.0989 283° West 430 495 27,400 1,258 Climbing Indianapolis Center
Sun 04:42:32 PM 38.0794 -87.2547 283° West 443 510 28,800 1,452 Climbing Indianapolis Center
Sun 04:43:34 PM 38.1092 -87.4114 284° West 449 517 30,400 1,645 Climbing Indianapolis Center
Sun 04:44:36 PM 38.1378 -87.5656 283° West 446 513 32,200 1,839 Climbing Indianapolis Center
Sun 04:45:38 PM 38.1711 -87.7447 283° West 434 499 34,200 1,548 Climbing Indianapolis Center
Sun 04:46:40 PM 38.1978 -87.8917 283° West 427 491 35,400 871 Climbing Indianapolis Center
Sun 04:47:42 PM 38.2242 -88.0411 283° West 430 495 36,000 290 Climbing Indianapolis Center
Sun 04:48:44 PM 38.2514 -88.1894 283° West 430 495 36,000  Level Indianapolis Center
Sun 04:49:46 PM 38.2778 -88.3381 283° West 430 495 36,000  Level Indianapolis Center
Sun 04:50:43 PM 38.3053 -88.4889 283° West 431 496 36,000  Level Kansas City Center
Sun 04:51:45 PM 38.3308 -88.6400 282° West 434 499 36,000  Level Kansas City Center
Sun 04:52:47 PM 38.3567 -88.7983 282° West 435 501 36,000  Level Kansas City Center
Sun 04:53:49 PM 38.3850 -88.9586 283° West 432 497 36,000  Level Kansas City Center
Sun 04:54:51 PM 38.4100 -89.1075 282° West 431 496 36,000  Level Kansas City Center
Sun 04:55:53 PM 38.4536 -89.2606 290° West 428 493 36,000  Level Kansas City Center
Sun 04:56:55 PM 38.4706 -89.4064 278° West 429 494 36,000  Level Kansas City Center
Sun 04:57:57 PM 38.4419 -89.5547 256° West 430 495 36,000  Level Kansas City Center
Sun 04:58:59 PM 38.4139 -89.6944 256° West 433 498 36,000  Level Kansas City Center
Sun 05:00:01 PM 38.3736 -89.8422 251° West 436 502 36,000  Level Kansas City Center
Sun 05:01:03 PM 38.3311 -89.9906 250° West 441 507 36,000  Level Kansas City Center
Sun 05:02:05 PM 38.2836 -90.1675 251° West 438 504 36,000  Level Kansas City Center
Sun 05:03:07 PM 38.2419 -90.3147 250° West 439 505 36,000  Level Kansas City Center
Sun 05:04:09 PM 38.1992 -90.4628 250° West 442 509 36,000  Level Kansas City Center
Sun 05:05:11 PM 38.1578 -90.6122 251° West 445 512 36,000  Level Kansas City Center
Sun 05:06:13 PM 38.1161 -90.7608 250° West 446 513 36,000  Level Kansas City Center
Sun 05:07:15 PM 38.0733 -90.9097 250° West 446 513 36,000  Level Kansas City Center
Sun 05:08:17 PM 38.0264 -91.0794 251° West 444 511 36,000  Level Kansas City Center
Sun 05:09:19 PM 37.9822 -91.2272 249° West 446 513 36,000  Level Kansas City Center
Sun 05:10:21 PM 37.9403 -91.3761 250° West 446 513 36,000  Level Kansas City Center
Sun 05:11:23 PM 37.8967 -91.5258 250° West 449 517 36,000  Level Kansas City Center
Sun 05:12:25 PM 37.8533 -91.6756 250° West 451 519 36,000  Level Kansas City Center
Sun 05:13:27 PM 37.8006 -91.8578 250° West 454 522 36,000  Level Kansas City Center
Sun 05:14:30 PM 37.7564 -92.0114 250° West 458 527 36,000  Level Kansas City Center
Sun 05:15:32 PM 37.7097 -92.1633 249° West 458 527 36,000  Level Kansas City Center
Sun 05:16:34 PM 37.6678 -92.3131 251° West 456 525 36,000  Level Kansas City Center
Sun 05:17:36 PM 37.6217 -92.4583 248° West 444 511 36,000  Level Kansas City Center
Sun 05:18:38 PM 37.5781 -92.6064 250° West 445 512 36,000  Level Kansas City Center
Sun 05:19:40 PM 37.5350 -92.7511 249° West 441 507 36,000  Level Kansas City Center
Sun 05:20:42 PM 37.4911 -92.8931 249° West 436 502 36,000  Level Kansas City Center
Sun 05:21:44 PM 37.4472 -93.0361 249° West 436 502 36,000  Level Kansas City Center
Sun 05:22:46 PM 37.4197 -93.2136 259° West 440 506 36,000  Level Kansas City Center
Sun 05:23:48 PM 37.4336 -93.3664 277° West 440 506 36,000  Level Kansas City Center
Sun 05:24:50 PM 37.4472 -93.5181 276° West 437 503 36,000  Level Kansas City Center
Sun 05:25:52 PM 37.4597 -93.6675 276° West 433 498 36,000  Level Kansas City Center
Sun 05:26:54 PM 37.4728 -93.8186 276° West 433 498 36,000  Level Kansas City Center
Sun 05:27:56 PM 37.4864 -93.9703 276° West 434 499 36,000  Level Kansas City Center
Sun 05:28:58 PM 37.4997 -94.1408 276° West 433 498 36,000  Level Kansas City Center
Sun 05:30:00 PM 37.5133 -94.2922 277° West 434 499 36,000  Level Kansas City Center
Sun 05:31:02 PM 37.5258 -94.4444 276° West 436 502 36,000  Level Kansas City Center
Sun 05:32:04 PM 37.5386 -94.5981 276° West 440 506 36,000  Level Kansas City Center
Sun 05:33:06 PM 37.5500 -94.7511 275° West 440 506 36,000  Level Kansas City Center
Sun 05:34:08 PM 37.5647 -94.9378 276° West 444 511 36,000  Level Kansas City Center
Sun 05:35:10 PM 37.5769 -95.0906 276° West 443 510 36,000  Level Kansas City Center
Sun 05:36:12 PM 37.5878 -95.2461 275° West 444 511 36,000  Level Kansas City Center
Sun 05:37:14 PM 37.6000 -95.4003 276° West 444 511 36,000  Level Kansas City Center
Sun 05:38:16 PM 37.6108 -95.5556 275° West 445 512 36,000  Level Kansas City Center
Sun 05:39:18 PM 37.6211 -95.7083 275° West 443 510 36,000  Level Kansas City Center
Sun 05:40:20 PM 37.6344 -95.8956 275° West 445 512 36,000  Level Kansas City Center
Sun 05:41:22 PM 37.6442 -96.0506 275° West 444 511 36,000  Level Kansas City Center
Sun 05:42:24 PM 37.6553 -96.2042 275° West 442 509 36,000  Level Kansas City Center
Sun 05:43:26 PM 37.6667 -96.3706 275° West 442 509 36,000  Level Kansas City Center
Sun 05:44:28 PM 37.6761 -96.5242 274° West 440 506 36,000  Level Kansas City Center
Sun 05:45:30 PM 37.6858 -96.6772 275° West 437 503 36,000  Level Kansas City Center
Sun 05:46:32 PM 37.6953 -96.8294 275° West 435 501 36,000  Level Kansas City Center
Sun 05:47:34 PM 37.7042 -96.9811 274° West 434 499 36,000  Level Kansas City Center
Sun 05:48:36 PM 37.7133 -97.1333 274° West 435 501 36,000  Level Kansas City Center
Sun 05:49:38 PM 37.7214 -97.2833 274° West 430 495 36,000  Level Kansas City Center
Sun 05:50:40 PM 37.7319 -97.4622 274° West 425 489 36,000  Level Kansas City Center
Sun 05:51:42 PM 37.7389 -97.6042 274° West 425 489 36,000  Level Kansas City Center
Sun 05:52:44 PM 37.7467 -97.7544 274° West 427 491 36,000  Level Kansas City Center
Sun 05:53:46 PM 37.7547 -97.9053 274° West 430 495 36,000  Level Kansas City Center
Sun 05:54:48 PM 37.7644 -98.0856 274° West 429 494 36,000  Level Kansas City Center
Sun 05:55:50 PM 37.7725 -98.2214 274° West 425 489 36,000  Level Kansas City Center
Sun 05:56:52 PM 37.7794 -98.3742 273° West 433 498 36,000  Level Kansas City Center
Sun 05:57:54 PM 37.7861 -98.5261 273° West 432 497 36,000  Level Kansas City Center
Sun 05:58:56 PM 37.7931 -98.6767 273° West 430 495 36,000  Level Kansas City Center
Sun 05:59:58 PM 37.8008 -98.8567 273° West 428 493 36,000  Level Kansas City Center
Sun 06:00:59 PM 37.8081 -99.0069 274° West 428 493 36,000  Level Kansas City Center
Sun 06:02:01 PM 37.8144 -99.1583 273° West 430 495 36,000  Level Kansas City Center
Sun 06:03:03 PM 37.8203 -99.3089 273° West 429 494 36,000  Level Kansas City Center
Sun 06:04:05 PM 37.8258 -99.4594 273° West 429 494 36,000  Level Kansas City Center
Sun 06:05:07 PM 37.8328 -99.6306 273° West 426 490 36,000  Level Kansas City Center
Sun 06:06:09 PM 37.8375 -99.7739 272° West 426 490 36,000  Level Kansas City Center
Sun 06:07:11 PM 37.8436 -99.9400 273° West 424 488 36,000  Level Kansas City Center
Sun 06:08:13 PM 37.8481 -100.0819 272° West 424 488 36,000 537 Level Kansas City Center
Sun 06:09:14 PM 37.8533 -100.2478 272° West 423 487 37,100 968 Climbing Kansas City Center
Sun 06:10:17 PM 37.8581 -100.3883 272° West 421 484 38,000 432 Climbing Kansas City Center
Sun 06:11:19 PM 37.8631 -100.5497 272° West 416 479 38,000  Level Kansas City Center
Sun 06:12:20 PM 37.8669 -100.6906 272° West 419 482 38,000  Level Kansas City Center
Sun 06:13:22 PM 37.8714 -100.8528 272° West 419 482 38,000  Level Kansas City Center
Sun 06:14:24 PM 37.8742 -100.9908 272° West 416 479 38,000  Level Kansas City Center
Sun 06:15:26 PM 37.8781 -101.1517 272° West 415 478 38,000  Level Kansas City Center
Sun 06:16:27 PM 37.8814 -101.2903 272° West 414 476 38,000  Level Kansas City Center
Sun 06:17:29 PM 37.8842 -101.4528 271° West 415 478 38,000  Level Kansas City Center
Sun 06:18:31 PM 37.8872 -101.5944 272° West 420 483 38,000  Level Kansas City Center
Sun 06:19:18 PM 37.8900 -101.7097 272° West 416 479 38,000  Level Denver Center
Sun 06:20:19 PM 37.8922 -101.8503 271° West 417 480 38,000  Level Denver Center
Sun 06:21:21 PM 37.8953 -102.0136 271° West 417 480 38,000  Level Denver Center
Sun 06:22:23 PM 37.8975 -102.1536 271° West 416 479 38,000  Level Denver Center
Sun 06:23:25 PM 37.8992 -102.3161 271° West 414 476 38,000  Level Denver Center
Sun 06:24:26 PM 37.8781 -102.4486 259° West 403 464 38,000  Level Denver Center
Sun 06:25:28 PM 37.8475 -102.6042 256° West 406 467 38,000  Level Denver Center
Sun 06:26:30 PM 37.8203 -102.7342 255° West 402 463 38,000  Level Denver Center
Sun 06:27:32 PM 37.7956 -102.8650 257° West 400 460 38,000  Level Denver Center
Sun 06:28:33 PM 37.7661 -103.0167 256° West 399 459 38,000  Level Denver Center
Sun 06:29:35 PM 37.7408 -103.1461 256° West 397 457 38,000  Level Denver Center
Sun 06:30:37 PM 37.7114 -103.2958 256° West 394 453 38,000  Level Denver Center
Sun 06:31:39 PM 37.6833 -103.4239 255° West 395 455 38,000  Level Denver Center
Sun 06:32:40 PM 37.6500 -103.5733 254° West 396 456 38,000  Level Denver Center
Sun 06:33:42 PM 37.6214 -103.7036 255° West 401 461 38,000  Level Denver Center
Sun 06:34:44 PM 37.6261 -103.8628 272° West 410 472 38,000  Level Denver Center
Sun 06:35:46 PM 37.6353 -103.9983 275° West 414 476 38,000  Level Denver Center
Sun 06:36:47 PM 37.6425 -104.1542 273° West 410 472 38,000  Level Denver Center
Sun 06:37:49 PM 37.6494 -104.2869 274° West 402 463 38,000  Level Denver Center
Sun 06:38:51 PM 37.6578 -104.4433 274° West 402 463 38,000  Level Denver Center
Sun 06:39:52 PM 37.6647 -104.5781 274° West 403 464 38,000  Level Denver Center
Sun 06:40:54 PM 37.6733 -104.7361 274° West 405 466 38,000  Level Denver Center
Sun 06:41:56 PM 37.6803 -104.8725 274° West 408 470 38,000  Level Denver Center
Sun 06:42:57 PM 37.6864 -105.0092 273° West 407 468 38,000  Level Denver Center
Sun 06:43:59 PM 37.6936 -105.1686 273° West 407 468 38,000  Level Denver Center
Sun 06:45:01 PM 37.7003 -105.3058 274° West 408 470 38,000  Level Denver Center
Sun 06:46:03 PM 37.7072 -105.4608 273° West 398 458 38,000  Level Denver Center
Sun 06:47:04 PM 37.7131 -105.5939 273° West 398 458 38,000  Level Denver Center
Sun 06:48:06 PM 37.7181 -105.7486 272° West 396 456 38,000  Level Denver Center
Sun 06:49:08 PM 37.7242 -105.8819 273° West 397 457 38,000  Level Denver Center
Sun 06:50:10 PM 37.7297 -106.0172 273° West 402 463 38,000  Level Denver Center
Sun 06:51:11 PM 37.7358 -106.1750 273° West 403 464 38,000  Level Denver Center
Sun 06:52:13 PM 37.7414 -106.3228 273° West 404 465 38,000  Level Denver Center
Sun 06:53:15 PM 37.7458 -106.4575 272° West 404 465 38,000  Level Denver Center
Sun 06:54:17 PM 37.7514 -106.6167 273° West 405 466 38,000  Level Denver Center
Sun 06:55:18 PM 37.7558 -106.7508 272° West 402 463 38,000  Level Denver Center
Sun 06:56:32 PM 37.7619 -106.9311 273° West 403 464 38,000  Level Denver Center
Sun 06:57:34 PM 37.7658 -107.0636 272° West 399 459 38,000  Level Denver Center
Sun 06:58:36 PM 37.7708 -107.2219 272° West 402 463 38,000  Level Denver Center
Sun 06:59:38 PM 37.7750 -107.3547 272° West 398 458 38,000  Level Denver Center
Sun 07:00:39 PM 37.7789 -107.5119 272° West 401 461 38,000  Level Denver Center
Sun 07:01:41 PM 37.7828 -107.6456 272° West 400 460 38,000  Level Denver Center
Sun 07:02:43 PM 37.7806 -107.8042 269° West 404 465 38,000  Level Denver Center
Sun 07:03:45 PM 37.7556 -107.9361 257° West 406 467 38,000  Level Denver Center
Sun 07:04:47 PM 37.7336 -108.0667 258° West 400 460 38,000  Level Denver Center
Sun 07:05:48 PM 37.7058 -108.2175 257° West 396 456 38,000  Level Denver Center
Sun 07:06:50 PM 37.6839 -108.3492 258° West 399 459 38,000  Level Denver Center
Sun 07:07:52 PM 37.6567 -108.5025 257° West 400 460 38,000  Level Denver Center
Sun 07:08:54 PM 37.6331 -108.6344 257° West 403 464 38,000  Level Denver Center
Sun 07:09:56 PM 37.6064 -108.7856 257° West 399 459 38,000  Level Denver Center
Sun 07:10:57 PM 37.5822 -108.9156 257° West 397 457 38,000  Level Denver Center
Sun 07:11:59 PM 37.5544 -109.0703 257° West 405 466 38,000  Level Denver Center
Sun 07:13:01 PM 37.5300 -109.2008 257° West 403 464 38,000  Level Denver Center
Sun 07:14:03 PM 37.5019 -109.3536 257° West 403 464 38,000  Level Denver Center
Sun 07:15:05 PM 37.4767 -109.4853 256° West 403 464 38,000  Level Denver Center
Sun 07:16:06 PM 37.4525 -109.6172 257° West 406 467 38,000  Level Denver Center
Sun 07:17:08 PM 37.4242 -109.7711 257° West 404 465 38,000  Level Denver Center
Sun 07:18:10 PM 37.3983 -109.9017 256° West 402 463 38,000  Level Denver Center
Sun 07:19:12 PM 37.3697 -110.0547 257° West 403 464 38,000  Level Denver Center
Sun 07:20:14 PM 37.3439 -110.1867 256° West 405 466 38,000  Level Denver Center
Sun 07:21:15 PM 37.3139 -110.3414 256° West 403 464 38,000  Level Denver Center
Sun 07:22:17 PM 37.2883 -110.4786 257° West 404 465 38,000  Level Denver Center
Sun 07:23:19 PM 37.2606 -110.6150 256° West 403 464 38,000  Level Denver Center
Sun 07:24:21 PM 37.2350 -110.7506 257° West 402 463 38,000  Level Denver Center
Sun 07:25:22 PM 37.2067 -110.8869 255° West 403 464 38,000 -49 Level Denver Center
Sun 07:26:24 PM 37.1792 -111.0214 256° West 398 458 37,900 -1,016 Descending Denver Center
Sun 07:27:26 PM 37.1508 -111.1575 255° West 402 463 35,900 -2,032 Descending Denver Center
Sun 07:28:28 PM 37.1175 -111.3275 256° West 419 482 33,700 -1,887 Descending Denver Center
Sun 07:29:30 PM 37.0883 -111.4703 256° West 423 487 32,000 -829 Descending Denver Center
Sun 07:30:31 PM 37.0614 -111.6089 256° West 415 478 32,000  Level Denver Center
Sun 07:31:29 PM 37.0289 -111.7475 254° West 410 472 32,000  Level Los Angeles Center
Sun 07:32:31 PM 37.0014 -111.8853 256° West 407 468 32,000  Level Los Angeles Center
Sun 07:33:33 PM 36.9719 -112.0219 255° West 407 468 32,000  Level Los Angeles Center
Sun 07:34:35 PM 36.9433 -112.1592 255° West 406 467 32,000  Level Los Angeles Center
Sun 07:35:38 PM 36.9181 -112.2972 257° West 407 468 32,000  Level Los Angeles Center
Sun 07:36:39 PM 36.8947 -112.4339 258° West 404 465 32,000  Level Los Angeles Center
Sun 07:37:41 PM 36.8672 -112.5714 256° West 406 467 32,000  Level Los Angeles Center
Sun 07:38:43 PM 36.8372 -112.7372 257° West 407 468 32,000  Level Los Angeles Center
Sun 07:39:45 PM 36.8100 -112.8750 256° West 407 468 32,000  Level Los Angeles Center
Sun 07:40:47 PM 36.7839 -113.0125 257° West 407 468 32,000  Level Los Angeles Center
Sun 07:41:49 PM 36.7578 -113.1517 257° West 409 471 32,000 -265 Level Los Angeles Center
Sun 07:43:03 PM 36.7264 -113.3147 257° West 404 465 31,400 -1,147 Descending Los Angeles Center
Sun 07:44:05 PM 36.7008 -113.4431 256° West 386 444 29,400 -2,081 Descending Los Angeles Center
Sun 07:45:07 PM 36.6725 -113.5911 257° West 368 423 27,100 -2,081 Descending Los Angeles Center
Sun 07:46:09 PM 36.6489 -113.7117 256° West 360 414 25,100 -1,839 Descending Los Angeles Center
Sun 07:47:11 PM 36.6253 -113.8289 256° West 353 406 23,300 -1,790 Descending Los Angeles Center
Sun 07:48:13 PM 36.6019 -113.9439 256° West 346 398 21,400 -1,790 Descending Los Angeles Center
Sun 07:49:15 PM 36.5786 -114.0594 256° West 345 397 19,600 -1,861 Descending Los Angeles Center
Sun 07:51:20 PM 36.4931 -114.2656 243° Southwest 320 368 15,600 -1,934 Descending Los Angeles Center
Sun 07:52:18 PM 36.4456 -114.3714 241° Southwest 323 372 13,700 -1,645 Descending Los Angeles Center
Sun 07:53:24 PM 36.4042 -114.4586 239° Southwest 321 369 12,200 -984 Descending Los Angeles Center
Sun 07:54:26 PM 36.3186 -114.5097 206° Southwest 288 331 11,600 -797 Descending Los Angeles Center
Sun 07:55:32 PM 36.2489 -114.5775 218° Southwest 282 325 10,500 -1,016 Descending Los Angeles Center
Sun 07:56:30 PM 36.1925 -114.6222 213° Southwest 275 316 9,500 -1,000 Descending Los Angeles Center
Sun 07:57:32 PM 36.1319 -114.6756 215° Southwest 269 310 8,500 -871 Descending Los Angeles Center
Sun 07:59:00 PM 36.1298 -114.8843 256° West  Level FlightAware Approximate
Sun 07:59:36 PM 36.0739 -114.8122 256° West 226 260 6,800  Level Los Angeles Center
Sun 08:00:31 PM 36.0722 -114.8742 268° West 215 247 6,100 -936 Descending Los Angeles Center
Sun 08:01:25 PM 36.0739 -114.9400 272° West 206 237 5,100 -1,091 Descending Los Angeles Center
Sun 08:02:32 PM 36.0744 -115.0117 271° West 182 209 3,900 -934 Descending Los Angeles Center
Sun 08:03:27 PM 36.0742 -115.0597 270° West 152 175 3,200 -738 Descending Los Angeles Center
Sun 08:04:34 PM 36.0742 -115.1103 270° West 135 155 2,400 -716 Descending Los Angeles Center
Sun 08:06:00 PM 36.0667 -115.1500 219° Southwest  Level FlightAware Approximate
Sun 08:13:00 PM 36.0801 -115.1523 219° Southwest  Level Estimated

Login

Don't have an account? Register now (free) for customized features, flight alerts, and more!